Maverick — WDC5837 — position and weather

sailwx.info

Track history (hours):
 
Tides and Currents Weather Stations Pressure Air Temp Water Temp Dewpoint Dewpoint Depression Visibility Wind Speed Wind Dir Waves Ship Positions

Maverick

Owner: Tidewater Barge Lines Inc., Vancouver, WA. More information available from US FCC via Universal Licensing System and Coast Guard Vessel Documentation Center.

Last reported at 2018-Feb-25 03:26 UTC. Time now 2018-Feb-25 03:44 UTC.
Position N 45°39' W 122°45'.

Length 25 m.

Type: Towing. MMSI: 2142722.

Date/timePositionNaut miles runAvg speedWind from/ knotsBaromVisibWave heightAir tempDewpointWater temp
2018-Feb-25 03:26N 45°39' W 122°45'1 3.4
2018-Feb-25 03:00N 45°38' W 122°43'1 2.8
2018-Feb-25 02:30N 45°39' W 122°45'0 0.3
2018-Feb-25 02:00N 45°39' W 122°45'0 0.0
2018-Feb-25 01:30N 45°39' W 122°45'0 0.1
2018-Feb-25 01:00N 45°39' W 122°45'1 2.6
2018-Feb-25 00:30N 45°38' W 122°43'1 2.2
2018-Feb-25 00:00N 45°39' W 122°44'1 2.6
2018-Feb-24 23:30N 45°38' W 122°43'2 2.5
2018-Feb-24 22:53N 45°39' W 122°45'1 3.4
2018-Feb-24 22:30N 45°39' W 122°47'3 5.7
2018-Feb-24 22:00N 45°36' W 122°47'1 2.6
2018-Feb-24 21:30N 45°37' W 122°47'3 5.3
2018-Feb-24 21:00N 45°39' W 122°45'0 0.8
2018-Feb-24 20:30N 45°39' W 122°44'0 0.0
2018-Feb-24 20:00N 45°39' W 122°44'0 0.0
2018-Feb-24 19:30N 45°39' W 122°44'0 0.0
2018-Feb-24 19:00N 45°39' W 122°44'0 0.0
2018-Feb-24 18:30N 45°39' W 122°44'0 0.0
2018-Feb-24 18:00N 45°39' W 122°44'0 0.1
2018-Feb-24 17:30N 45°39' W 122°44'0 0.1
2018-Feb-24 17:00N 45°39' W 122°44'0 0.1
2018-Feb-24 16:30N 45°39' W 122°44'0 0.0
2018-Feb-24 16:00N 45°39' W 122°44'0 0.0
2018-Feb-24 15:25N 45°39' W 122°44'0 0.0
2018-Feb-24 15:00N 45°39' W 122°44'0 0.0
2018-Feb-24 14:31N 45°39' W 122°44'0 0.0
2018-Feb-24 14:00N 45°39' W 122°44'0 0.0
2018-Feb-24 13:30N 45°39' W 122°44'2 2.3
2018-Feb-24 12:45N 45°38' W 122°42'0 1.5
2018-Feb-24 12:30N 45°38' W 122°43'2 3.9
2018-Feb-24 12:00N 45°39' W 122°45'0 0.1
2018-Feb-24 11:30N 45°39' W 122°45'1 1.1
2018-Feb-24 11:00N 45°39' W 122°44'0 0.0
2018-Feb-24 10:30N 45°39' W 122°44'0 0.0
2018-Feb-24 10:00N 45°39' W 122°44'0 0.0
2018-Feb-24 09:30N 45°39' W 122°44'0 0.0
2018-Feb-24 09:00N 45°39' W 122°44'0 0.0
2018-Feb-24 08:30N 45°39' W 122°44'0 0.0
2018-Feb-24 08:00N 45°39' W 122°44'0 0.0
2018-Feb-24 07:31N 45°39' W 122°44'0 0.0
2018-Feb-24 07:00N 45°39' W 122°44'0 0.0
2018-Feb-24 06:30N 45°39' W 122°44'1 2.8
2018-Feb-24 06:00N 45°38' W 122°43'1 1.7
2018-Feb-24 05:30N 45°38' W 122°44'2 3.7
2018-Feb-24 05:00N 45°39' W 122°47'3 5.5
2018-Feb-24 04:30N 45°36' W 122°47'3 6.3
2018-Feb-24 04:00N 45°34' W 122°43'2 4.9
2018-Feb-24 03:30N 45°32' W 122°41'2 3.8
2018-Feb-24 03:00N 45°33' W 122°43'3 6.3
2018-Feb-24 02:30N 45°35' W 122°46'1 1.4
2018-Feb-24 02:00N 45°36' W 122°47'4 4.4
2018-Feb-24 01:12N 45°38' W 122°43'1 3.2
2018-Feb-24 00:48N 45°39' W 122°44'1 2.1
2018-Feb-24 00:30N 45°39' W 122°45'0 0.9
2018-Feb-24 00:00N 45°39' W 122°46'2 4.1
2018-Feb-23 23:30N 45°38' W 122°43'7 8.7
2018-Feb-23 22:45N 45°36' W 122°34'210.1
2018-Feb-23 22:30N 45°35' W 122°31'5 9.7
2018-Feb-23 22:00N 45°34' W 122°24'5 9.3
2018-Feb-23 21:30N 45°33' W 122°18'5 9.5
2018-Feb-23 21:00N 45°34' W 122°11'8 4.8
2018-Feb-23 19:15N 45°37' W 122°00'1 2.4
2018-Feb-23 19:00N 45°37' W 122°01'3 5.3
2018-Feb-23 18:27N 45°36' W 122°05'3 6.2
2018-Feb-23 17:59N 45°35' W 122°09'3 6.3
2018-Feb-23 17:30N 45°34' W 122°13'3 6.1
2018-Feb-23 17:00N 45°33' W 122°17'3 5.9
2018-Feb-23 16:30N 45°34' W 122°21'2 4.4
2018-Feb-23 16:00N 45°34' W 122°24'3 4.9
2018-Feb-23 15:29N 45°34' W 122°27'3 5.3
2018-Feb-23 14:59N 45°35' W 122°31'3 5.5
2018-Feb-23 14:30N 45°36' W 122°34'3 5.6
2018-Feb-23 14:00N 45°37' W 122°38'1 1.7
2018-Feb-23 13:30N 45°37' W 122°39'2 4.2
2018-Feb-23 13:00N 45°38' W 122°42'2 4.6
2018-Feb-23 12:30N 45°39' W 122°45'0 0.2
2018-Feb-23 12:00N 45°39' W 122°45'0 0.1
2018-Feb-23 11:30N 45°39' W 122°45'3 4.2
2018-Feb-23 10:48N 45°42' W 122°46'2 5.8
2018-Feb-23 10:22N 45°44' W 122°46'2 6.0
2018-Feb-23 10:00N 45°46' W 122°46'4 5.7
2018-Feb-23 09:15N 45°51' W 122°47'1 5.7
2018-Feb-23 09:00N 45°52' W 122°47'3 5.4
2018-Feb-23 08:30N 45°55' W 122°48'3 5.7
2018-Feb-23 08:00N 45°57' W 122°49'2 3.1
2018-Feb-23 07:16N 45°59' W 122°50'0 1.2
2018-Feb-23 07:00N 45°59' W 122°50'0 0.2
2018-Feb-23 06:27N 45°59' W 122°50'0 0.6
2018-Feb-23 06:01N 45°59' W 122°50'0 0.0
2018-Feb-23 05:30N 45°59' W 122°50'0 0.0
2018-Feb-23 05:00N 45°59' W 122°50'0 0.0
2018-Feb-23 04:30N 45°59' W 122°50'0 0.0
2018-Feb-23 04:00N 45°59' W 122°50'0 0.0
2018-Feb-23 03:27N 45°59' W 122°50'0 0.0
2018-Feb-23 03:00N 45°59' W 122°50'5 8.6
2018-Feb-23 02:28N 45°55' W 122°49'1 2.5
2018-Feb-23 02:00N 45°54' W 122°48'710.0
2018-Feb-23 01:16N 45°47' W 122°46'2 9.8
2018-Feb-23 01:00N 45°44' W 122°46'5 9.2
2018-Feb-23 00:30N 45°40' W 122°46'1 2.4
2018-Feb-22 23:54N 45°39' W 122°44'0 1.1
2018-Feb-22 23:30N 45°39' W 122°45'1 1.5
2018-Feb-22 23:00N 45°40' W 122°45'1 1.9
2018-Feb-22 22:30N 45°39' W 122°44'0 0.1
2018-Feb-22 22:00N 45°39' W 122°44'0 0.0
2018-Feb-22 21:26N 45°39' W 122°44'0 0.0
2018-Feb-22 21:00N 45°39' W 122°44'0 0.0
2018-Feb-22 20:31N 45°39' W 122°44'0 0.0
2018-Feb-22 19:57N 45°39' W 122°44'0 0.0
2018-Feb-22 19:30N 45°39' W 122°44'0 0.0
2018-Feb-22 18:39N 45°39' W 122°44'0 0.0
2018-Feb-22 18:30N 45°39' W 122°44'0 0.2
2018-Feb-22 18:00N 45°39' W 122°45'0 0.2
2018-Feb-22 17:30N 45°39' W 122°44'0 0.0
2018-Feb-22 17:00N 45°39' W 122°44'0 0.1
2018-Feb-22 16:30N 45°39' W 122°44'1 1.9
2018-Feb-22 16:01N 45°39' W 122°45'0 0.0
2018-Feb-22 15:30N 45°39' W 122°45'3 5.2
2018-Feb-22 15:00N 45°37' W 122°47'1 1.5
2018-Feb-22 14:30N 45°37' W 122°47'3 5.8
2018-Feb-22 14:00N 45°39' W 122°45'0 0.1
2018-Feb-22 13:30N 45°39' W 122°45'2 4.8
2018-Feb-22 13:00N 45°37' W 122°47'3 5.5
2018-Feb-22 12:23N 45°34' W 122°45'0 1.3
2018-Feb-22 12:00N 45°34' W 122°44'0 0.0
2018-Feb-22 11:29N 45°34' W 122°44'0 0.0
2018-Feb-22 11:00N 45°34' W 122°44'0 0.6
2018-Feb-22 10:30N 45°34' W 122°44'3 6.0
2018-Feb-22 10:00N 45°37' W 122°47'3 5.7
2018-Feb-22 09:31N 45°39' W 122°46'1 1.2
2018-Feb-22 09:00N 45°39' W 122°45'0 0.1
2018-Feb-22 08:30N 45°39' W 122°45'2 3.5
2018-Feb-22 08:01N 45°38' W 122°43'0 0.0
2018-Feb-22 07:30N 45°38' W 122°43'0 0.0
2018-Feb-22 07:00N 45°38' W 122°43'2 4.6
2018-Feb-22 06:30N 45°40' W 122°45'0 0.0
2018-Feb-22 06:00N 45°40' W 122°45'0 0.1
2018-Feb-22 05:30N 45°39' W 122°45'0 0.0
2018-Feb-22 05:00N 45°39' W 122°45'0 0.0
2018-Feb-22 04:30N 45°39' W 122°45'1 1.8
2018-Feb-22 04:00N 45°39' W 122°44'0 0.1
2018-Feb-22 03:30N 45°39' W 122°44'0 0.0
2018-Feb-22 03:00N 45°39' W 122°44'0 0.0
2018-Feb-22 02:30N 45°39' W 122°44'0 0.2
2018-Feb-22 02:00N 45°39' W 122°45'2 4.8
2018-Feb-22 01:30N 45°38' W 122°47'4 8.2
2018-Feb-22 01:00N 45°34' W 122°44'4 7.2
2018-Feb-22 00:30N 45°32' W 122°40'2 4.4
2018-Feb-22 00:00N 45°33' W 122°43'4 7.4
2018-Feb-21 23:30N 45°36' W 122°47'3 6.8
2018-Feb-21 23:00N 45°39' W 122°46'1 1.8
2018-Feb-21 22:30N 45°39' W 122°45'2 3.3
2018-Feb-21 22:00N 45°38' W 122°43'2 3.2
2018-Feb-21 21:30N 45°39' W 122°45'2 3.6
2018-Feb-21 21:00N 45°38' W 122°42'0 0.8
2018-Feb-21 20:30N 45°38' W 122°43'0 0.0
2018-Feb-21 20:00N 45°38' W 122°43'1 2.6
2018-Feb-21 19:30N 45°39' W 122°44'0 0.8
2018-Feb-21 19:00N 45°39' W 122°45'0 0.7
2018-Feb-21 18:26N 45°39' W 122°44'0 0.0
2018-Feb-21 17:52N 45°39' W 122°44'0 0.0
2018-Feb-21 17:29N 45°39' W 122°44'0 0.0
2018-Feb-21 17:00N 45°39' W 122°44'0 0.0
2018-Feb-21 16:30N 45°39' W 122°44'0 0.0
2018-Feb-21 16:00N 45°39' W 122°44'0 0.2
2018-Feb-21 15:31N 45°39' W 122°44'2 3.2
2018-Feb-21 15:00N 45°38' W 122°42'2 3.9
2018-Feb-21 14:30N 45°39' W 122°45'0 0.5
2018-Feb-21 14:00N 45°39' W 122°44'0 0.0
2018-Feb-21 13:30N 45°39' W 122°44'0 0.0
2018-Feb-21 13:00N 45°39' W 122°44'0 0.0
2018-Feb-21 12:30N 45°39' W 122°44'0 0.0
2018-Feb-21 12:00N 45°39' W 122°44'0 0.0
2018-Feb-21 11:30N 45°39' W 122°44'0 0.0
2018-Feb-21 11:00N 45°39' W 122°44'0 0.0
2018-Feb-21 10:30N 45°39' W 122°44'0 0.0
2018-Feb-21 10:00N 45°39' W 122°44'0 0.0
2018-Feb-21 09:30N 45°39' W 122°44'0 0.0
2018-Feb-21 08:59N 45°39' W 122°44'0 0.0
2018-Feb-21 08:15N 45°39' W 122°44'0 0.0
2018-Feb-21 08:00N 45°39' W 122°44'0 0.0
2018-Feb-21 07:28N 45°39' W 122°44'0 0.0
2018-Feb-21 06:32N 45°39' W 122°44'0 0.0
2018-Feb-21 06:30N 45°39' W 122°44'0 0.0
2018-Feb-21 05:59N 45°39' W 122°44'0 0.0
2018-Feb-21 05:29N 45°39' W 122°44'0 0.0
2018-Feb-21 05:00N 45°39' W 122°44'0 0.0
2018-Feb-21 04:30N 45°39' W 122°44'0 0.0
2018-Feb-21 04:00N 45°39' W 122°44'0 0.0
2018-Feb-21 03:30N 45°39' W 122°44'1 1.8
2018-Feb-21 03:00N 45°39' W 122°45'1 2.3
2018-Feb-21 02:30N 45°38' W 122°44'0 0.7
2018-Feb-21 02:00N 45°39' W 122°44'0 0.0
2018-Feb-21 01:30N 45°39' W 122°44'0 0.0
2018-Feb-21 01:00N 45°39' W 122°44'0 0.0
2018-Feb-21 00:30N 45°39' W 122°44'1 2.9
2018-Feb-21 00:00N 45°38' W 122°43'2 3.1
2018-Feb-20 23:30N 45°39' W 122°45'1 1.9
2018-Feb-20 23:01N 45°39' W 122°46'3 5.4
2018-Feb-20 22:23N 45°36' W 122°47'0 0.7
2018-Feb-20 22:00N 45°36' W 122°47'1 2.1
2018-Feb-20 21:30N 45°37' W 122°47'0 0.8
2018-Feb-20 21:01N 45°37' W 122°47'0 0.8
2018-Feb-20 20:30N 45°37' W 122°47'2 4.9
2018-Feb-20 20:00N 45°39' W 122°44'0 0.0
2018-Feb-20 19:30N 45°39' W 122°44'0 0.0
2018-Feb-20 19:00N 45°39' W 122°44'1 2.2
2018-Feb-20 18:30N 45°39' W 122°46'3 6.8
2018-Feb-20 18:00N 45°36' W 122°46'2 4.9
2018-Feb-20 17:30N 45°34' W 122°44'2 3.1
2018-Feb-20 17:00N 45°35' W 122°46'2 4.6
2018-Feb-20 16:30N 45°37' W 122°47'2 4.8
2018-Feb-20 16:00N 45°39' W 122°46'1 2.0
2018-Feb-20 15:26N 45°39' W 122°45'0 0.7
2018-Feb-20 15:00N 45°39' W 122°44'0 0.0
2018-Feb-20 14:30N 45°39' W 122°44'0 0.0
2018-Feb-20 14:00N 45°39' W 122°44'0 0.0
2018-Feb-20 13:30N 45°39' W 122°44'0 0.0
2018-Feb-20 13:00N 45°39' W 122°44'0 0.0
2018-Feb-20 12:30N 45°39' W 122°44'0 0.0
2018-Feb-20 12:00N 45°39' W 122°44'0 0.0
2018-Feb-20 11:30N 45°39' W 122°44'0 0.0
2018-Feb-20 11:00N 45°39' W 122°44'0 0.0
2018-Feb-20 10:30N 45°39' W 122°44'0 0.0
2018-Feb-20 10:00N 45°39' W 122°44'0 0.0
2018-Feb-20 09:30N 45°39' W 122°44'0 0.0
2018-Feb-20 09:00N 45°39' W 122°44'0 0.0
2018-Feb-20 08:30N 45°39' W 122°44'0 0.0
2018-Feb-20 08:00N 45°39' W 122°44'0 0.0
2018-Feb-20 07:30N 45°39' W 122°44'1 1.1
2018-Feb-20 07:00N 45°39' W 122°45'2 4.6
2018-Feb-20 06:30N 45°38' W 122°42'1 1.3
2018-Feb-20 06:00N 45°38' W 122°43'0 0.6
2018-Feb-20 05:30N 45°38' W 122°43'1 2.9
2018-Feb-20 05:00N 45°39' W 122°45'0 0.1
2018-Feb-20 04:30N 45°39' W 122°45'1 1.3
2018-Feb-20 04:00N 45°39' W 122°45'4 7.1
2018-Feb-20 03:31N 45°36' W 122°47'2 3.3
2018-Feb-20 03:00N 45°37' W 122°47'3 5.2
2018-Feb-20 02:31N 45°39' W 122°45'1 1.7
2018-Feb-20 01:57N 45°39' W 122°44'0 0.0
2018-Feb-20 01:27N 45°39' W 122°44'0 0.0
2018-Feb-20 00:57N 45°39' W 122°44'0 0.0
2018-Feb-20 00:30N 45°39' W 122°44'0 0.0
2018-Feb-19 23:54N 45°39' W 122°44'0 0.0
2018-Feb-19 23:27N 45°39' W 122°44'0 0.0
2018-Feb-19 23:00N 45°39' W 122°44'0 0.0
2018-Feb-19 22:24N 45°39' W 122°44'0 0.0
2018-Feb-19 21:54N 45°39' W 122°44'0 0.0
2018-Feb-19 21:24N 45°39' W 122°44'0 0.0
2018-Feb-19 21:00N 45°39' W 122°44'0 0.0
2018-Feb-19 20:29N 45°39' W 122°44'0 0.0
2018-Feb-19 20:00N 45°39' W 122°44'0 0.0
2018-Feb-19 18:58N 45°39' W 122°44'0 0.0
2018-Feb-19 18:10N 45°39' W 122°44'0 0.0
2018-Feb-19 18:00N 45°39' W 122°44'0 0.0
2018-Feb-19 17:31N 45°39' W 122°44'0 0.0
2018-Feb-19 17:01N 45°39' W 122°44'0 0.0
2018-Feb-19 16:30N 45°39' W 122°44'0 0.0
2018-Feb-19 16:00N 45°39' W 122°44'0 0.0
2018-Feb-19 15:29N 45°39' W 122°44'0 0.0
2018-Feb-19 15:01N 45°39' W 122°44'0 0.0
2018-Feb-19 14:30N 45°39' W 122°44'0 0.0
2018-Feb-19 14:01N 45°39' W 122°44'0 0.0
2018-Feb-19 13:30N 45°39' W 122°44'0 0.0
2018-Feb-19 13:00N 45°39' W 122°44'0 0.0
2018-Feb-19 12:30N 45°39' W 122°44'0 0.0
2018-Feb-19 12:00N 45°39' W 122°44'0 0.0
2018-Feb-19 10:49N 45°39' W 122°44'0 0.0
2018-Feb-19 10:31N 45°39' W 122°44'0 0.0
2018-Feb-19 10:01N 45°39' W 122°44'0 0.0
2018-Feb-19 09:19N 45°39' W 122°44'0 0.0
2018-Feb-19 09:00N 45°39' W 122°44'0 0.0
2018-Feb-19 08:30N 45°39' W 122°44'0 0.0
2018-Feb-19 08:01N 45°39' W 122°44'0 0.0
2018-Feb-19 07:30N 45°39' W 122°44'0 0.0
2018-Feb-19 06:57N 45°39' W 122°44'0 0.0
2018-Feb-19 06:30N 45°39' W 122°44'0 0.0
2018-Feb-19 06:00N 45°39' W 122°44'0 0.0
2018-Feb-19 05:19N 45°39' W 122°44'0 0.0
2018-Feb-19 05:01N 45°39' W 122°44'0 0.0
2018-Feb-19 04:29N 45°39' W 122°44'0 0.3
2018-Feb-19 04:00N 45°39' W 122°45'1 1.7
2018-Feb-19 03:30N 45°39' W 122°46'1 1.4
2018-Feb-19 03:00N 45°39' W 122°46'1 1.8
2018-Feb-19 02:30N 45°39' W 122°45'0 0.8
2018-Feb-19 02:00N 45°39' W 122°45'1 1.5
2018-Feb-19 01:31N 45°39' W 122°45'1 1.2
2018-Feb-19 01:00N 45°39' W 122°45'0 0.3
2018-Feb-19 00:30N 45°40' W 122°45'2 3.3
2018-Feb-19 00:00N 45°38' W 122°47'3 6.5
2018-Feb-18 23:30N 45°35' W 122°46'2 3.1
2018-Feb-18 23:00N 45°34' W 122°44'0 0.0
2018-Feb-18 22:30N 45°34' W 122°44'0 0.1
2018-Feb-18 22:00N 45°34' W 122°44'2 4.9
2018-Feb-18 21:30N 45°36' W 122°47'3 5.8
2018-Feb-18 21:01N 45°39' W 122°46'3 5.2
2018-Feb-18 20:30N 45°38' W 122°43'1 2.8
2018-Feb-18 20:00N 45°39' W 122°44'0 0.0
2018-Feb-18 19:31N 45°39' W 122°44'0 0.0
2018-Feb-18 19:00N 45°39' W 122°44'0 0.0
2018-Feb-18 18:31N 45°39' W 122°44'0 0.0
2018-Feb-18 18:01N 45°39' W 122°44'0 0.0
2018-Feb-18 17:30N 45°39' W 122°44'0 0.0
2018-Feb-18 17:00N 45°39' W 122°44'0 0.0
2018-Feb-18 16:30N 45°39' W 122°44'0 0.0
2018-Feb-18 16:00N 45°39' W 122°44'2 3.3
2018-Feb-18 15:30N 45°38' W 122°42'5 9.6
2018-Feb-18 15:00N 45°36' W 122°36'510.0
2018-Feb-18 14:30N 45°35' W 122°29'5 9.7
2018-Feb-18 14:00N 45°34' W 122°22'5 9.6
2018-Feb-18 13:30N 45°33' W 122°16'4 8.0
2018-Feb-18 13:00N 45°35' W 122°11'4 6.8
2018-Feb-18 12:27N 45°35' W 122°06'3 1.1
2018-Feb-18 09:23N 45°37' W 122°01'2 4.8
2018-Feb-18 08:58N 45°36' W 122°04'3 6.1
2018-Feb-18 08:29N 45°35' W 122°08'3 6.1
2018-Feb-18 08:00N 45°34' W 122°12'3 6.0
2018-Feb-18 07:30N 45°33' W 122°16'3 5.9
2018-Feb-18 07:00N 45°33' W 122°20'3 4.9
2018-Feb-18 06:28N 45°35' W 122°23'2 5.3
2018-Feb-18 06:00N 45°34' W 122°27'3 5.7
2018-Feb-18 05:29N 45°35' W 122°30'3 5.8
2018-Feb-18 05:00N 45°36' W 122°34'3 5.8
2018-Feb-18 04:30N 45°37' W 122°38'3 5.7
2018-Feb-18 04:00N 45°38' W 122°42'3 5.5
2018-Feb-18 03:31N 45°39' W 122°45'1 1.3
2018-Feb-18 03:00N 45°39' W 122°44'0 0.0
2018-Feb-18 02:31N 45°39' W 122°44'0 0.0
2018-Feb-18 02:01N 45°39' W 122°44'0 0.0
2018-Feb-18 01:30N 45°39' W 122°44'0 0.0
2018-Feb-18 01:01N 45°39' W 122°44'1 0.7
2018-Feb-18 00:11N 45°39' W 122°45'0 0.2
2018-Feb-17 23:48N 45°39' W 122°45'0 0.0
2018-Feb-17 23:30N 45°39' W 122°45'0 0.0
2018-Feb-17 23:00N 45°39' W 122°45'0 0.3
2018-Feb-17 22:30N 45°39' W 122°45'0 0.6
2018-Feb-17 22:00N 45°39' W 122°46'3 6.0
2018-Feb-17 21:30N 45°42' W 122°46'3 6.3
2018-Feb-17 21:00N 45°45' W 122°46'3 6.4
2018-Feb-17 20:30N 45°48' W 122°48'3 6.2
2018-Feb-17 20:01N 45°52' W 122°47'3 5.9
2018-Feb-17 19:30N 45°54' W 122°48'5 5.9
2018-Feb-17 18:39N 45°59' W 122°50'0 0.6
2018-Feb-17 18:31N 45°59' W 122°50'3 5.8
2018-Feb-17 18:00N 45°57' W 122°48'5 8.9
2018-Feb-17 17:30N 45°52' W 122°47'4 8.5
2018-Feb-17 17:00N 45°48' W 122°47'4 8.4
2018-Feb-17 16:31N 45°44' W 122°46'4 8.3
2018-Feb-17 16:00N 45°40' W 122°46'3 5.5
2018-Feb-17 15:30N 45°38' W 122°43'0 0.8
2018-Feb-17 15:00N 45°38' W 122°42'0 0.0
2018-Feb-17 14:30N 45°38' W 122°42'0 0.0
2018-Feb-17 14:00N 45°38' W 122°42'1 1.1
2018-Feb-17 13:30N 45°38' W 122°42'1 1.2
2018-Feb-17 13:00N 45°38' W 122°42'0 0.0
2018-Feb-17 12:30N 45°38' W 122°42'0 0.0
2018-Feb-17 12:00N 45°38' W 122°42'0 0.0
2018-Feb-17 11:30N 45°38' W 122°42'0 0.0
2018-Feb-17 11:00N 45°38' W 122°42'3 5.4
2018-Feb-17 10:30N 45°39' W 122°45'0 0.0
2018-Feb-17 10:00N 45°39' W 122°45'0 0.0
2018-Feb-17 09:30N 45°39' W 122°45'0 0.0
2018-Feb-17 09:00N 45°39' W 122°45'0 0.0
2018-Feb-17 08:31N 45°39' W 122°45'0 0.0
2018-Feb-17 08:00N 45°39' W 122°45'0 0.0
2018-Feb-17 07:30N 45°39' W 122°45'1 1.5
2018-Feb-17 07:00N 45°39' W 122°45'0 0.1
2018-Feb-17 06:30N 45°39' W 122°45'2 3.9
2018-Feb-17 06:01N 45°38' W 122°42'2 3.7
2018-Feb-17 05:30N 45°39' W 122°45'1 1.8
2018-Feb-17 05:01N 45°39' W 122°45'0 0.3
2018-Feb-17 04:30N 45°39' W 122°45'1 0.8
2018-Feb-17 03:45N 45°39' W 122°45'0 0.4
2018-Feb-17 03:16N 45°39' W 122°44'0 0.0
2018-Feb-17 03:00N 45°39' W 122°44'0 0.0
2018-Feb-17 02:30N 45°39' W 122°44'0 0.0
2018-Feb-17 02:01N 45°39' W 122°44'0 0.0
2018-Feb-17 01:31N 45°39' W 122°44'0 0.0
2018-Feb-17 01:00N 45°39' W 122°44'0 0.0
2018-Feb-17 00:30N 45°39' W 122°44'0 0.6
2018-Feb-17 00:01N 45°39' W 122°45'0 0.5
2018-Feb-16 23:28N 45°39' W 122°44'0 0.0
2018-Feb-16 23:00N 45°39' W 122°44'0 0.4
2018-Feb-16 22:29N 45°39' W 122°45'0 0.2
2018-Feb-16 22:00N 45°39' W 122°45'1 1.4
2018-Feb-16 21:29N 45°40' W 122°45'4 5.8
2018-Feb-16 20:44N 45°35' W 122°46'2 7.9
2018-Feb-16 20:30N 45°34' W 122°44'3 6.3
2018-Feb-16 20:00N 45°32' W 122°40'3 5.3
2018-Feb-16 19:30N 45°34' W 122°43'4 7.9
2018-Feb-16 19:00N 45°37' W 122°47'3 5.4
2018-Feb-16 18:31N 45°39' W 122°44'1 2.7
2018-Feb-16 18:00N 45°40' W 122°46'3 5.3
2018-Feb-16 17:30N 45°42' W 122°46'3 5.4
2018-Feb-16 17:00N 45°45' W 122°46'4 5.6
2018-Feb-16 16:12N 45°49' W 122°48'2 5.7
2018-Feb-16 15:53N 45°51' W 122°47'2 5.0
2018-Feb-16 15:30N 45°53' W 122°48'2 3.3
2018-Feb-16 15:00N 45°54' W 122°49'3 6.1
2018-Feb-16 14:30N 45°57' W 122°49'3 6.4
2018-Feb-16 14:00N 46°00' W 122°51'2 3.1
2018-Feb-16 13:30N 46°02' W 122°52'0 0.9
2018-Feb-16 13:00N 46°01' W 122°52'4 7.6
2018-Feb-16 12:30N 45°58' W 122°49'6 7.8
2018-Feb-16 11:47N 45°52' W 122°47'2 8.0
2018-Feb-16 11:30N 45°50' W 122°47'4 8.0
2018-Feb-16 11:00N 45°46' W 122°46'4 8.3
2018-Feb-16 10:30N 45°42' W 122°46'3 6.1
2018-Feb-16 10:00N 45°39' W 122°45'0 0.5
2018-Feb-16 09:26N 45°39' W 122°45'0 0.6
2018-Feb-16 09:01N 45°39' W 122°45'1 1.0
2018-Feb-16 08:31N 45°39' W 122°45'0 0.2
2018-Feb-16 08:01N 45°39' W 122°44'0 0.0
2018-Feb-16 07:30N 45°39' W 122°44'0 0.0
2018-Feb-16 07:00N 45°39' W 122°44'0 0.0
2018-Feb-16 06:30N 45°39' W 122°44'0 0.2
2018-Feb-16 06:00N 45°39' W 122°45'0 0.5
2018-Feb-16 05:30N 45°39' W 122°45'0 0.0
2018-Feb-16 05:00N 45°39' W 122°45'0 0.0
2018-Feb-16 04:30N 45°39' W 122°45'0 0.0
2018-Feb-16 04:00N 45°39' W 122°45'0 0.1
2018-Feb-16 03:31N 45°39' W 122°45'3 5.3
2018-Feb-16 03:00N 45°37' W 122°47'3 6.6
2018-Feb-16 02:29N 45°34' W 122°44'1 3.0
2018-Feb-16 02:00N 45°35' W 122°46'3 6.6
2018-Feb-16 01:30N 45°38' W 122°47'1 2.8
2018-Feb-16 01:00N 45°39' W 122°45'0 0.9
2018-Feb-16 00:30N 45°39' W 122°45'1 1.3
2018-Feb-16 00:01N 45°39' W 122°44'0 0.0
2018-Feb-15 23:31N 45°39' W 122°44'0 0.0
2018-Feb-15 23:01N 45°39' W 122°44'0 0.0
2018-Feb-15 22:30N 45°39' W 122°44'0 0.0
2018-Feb-15 22:00N 45°39' W 122°44'0 0.0
2018-Feb-15 21:30N 45°39' W 122°44'0 0.0
2018-Feb-15 21:00N 45°39' W 122°44'0 0.0
2018-Feb-15 20:30N 45°39' W 122°44'0 0.0
2018-Feb-15 20:00N 45°39' W 122°44'0 0.0
2018-Feb-15 19:30N 45°39' W 122°44'0 0.0
2018-Feb-15 19:00N 45°39' W 122°44'0 0.0
2018-Feb-15 18:20N 45°39' W 122°44'0 1.5
2018-Feb-15 18:01N 45°39' W 122°45'3 5.1
2018-Feb-15 17:30N 45°37' W 122°47'3 6.6
2018-Feb-15 17:00N 45°34' W 122°45'1 1.3
2018-Feb-15 16:30N 45°35' W 122°45'3 6.2
2018-Feb-15 16:01N 45°37' W 122°48'3 5.1
2018-Feb-15 15:30N 45°40' W 122°45'1 1.9
2018-Feb-15 15:00N 45°39' W 122°44'0 0.0
2018-Feb-15 14:30N 45°39' W 122°44'0 0.0
2018-Feb-15 14:00N 45°39' W 122°44'0 0.0
2018-Feb-15 13:30N 45°39' W 122°44'0 0.0
2018-Feb-15 13:00N 45°39' W 122°44'0 0.0
2018-Feb-15 12:30N 45°39' W 122°44'0 0.0
2018-Feb-15 12:01N 45°39' W 122°44'0 0.0
2018-Feb-15 11:13N 45°39' W 122°44'0 0.0
2018-Feb-15 10:54N 45°39' W 122°44'1 1.8
2018-Feb-15 10:30N 45°38' W 122°44'1 1.3
2018-Feb-15 10:00N 45°38' W 122°43'1 2.7
2018-Feb-15 09:30N 45°39' W 122°44'1 1.1
2018-Feb-15 09:01N 45°39' W 122°45'0 0.2
2018-Feb-15 08:30N 45°39' W 122°45'1 2.0
2018-Feb-15 08:00N 45°39' W 122°47'1 2.6
2018-Feb-15 07:30N 45°37' W 122°47'2 4.9
2018-Feb-15 07:01N 45°39' W 122°44'0 0.0
2018-Feb-15 06:30N 45°39' W 122°44'0 0.0
2018-Feb-15 06:01N 45°39' W 122°44'0 0.1
2018-Feb-15 05:30N 45°39' W 122°44'0 0.0
2018-Feb-15 05:01N 45°39' W 122°44'0 0.0
2018-Feb-15 04:30N 45°39' W 122°44'0 0.0
2018-Feb-15 04:00N 45°39' W 122°44'0 0.0
2018-Feb-15 03:30N 45°39' W 122°44'  
Track history (hours):
 
Tides and Currents Weather Stations Pressure Air Temp Water Temp Dewpoint Dewpoint Depression Visibility Wind Speed Wind Dir Waves Ship Positions

Maverick

Owner: Tidewater Barge Lines Inc., Vancouver, WA. More information available from US FCC via Universal Licensing System and Coast Guard Vessel Documentation Center.

Last reported at 2018-Feb-25 03:26 UTC. Time now 2018-Feb-25 03:44 UTC.
Position N 45°39' W 122°45'.

Length 25 m.

Type: Towing. MMSI: 2142722.

Date/timePositionNaut miles runAvg speedWind from/ knotsBaromVisibWave heightAir tempDewpointWater temp
2018-Feb-25 03:26N 45°39' W 122°45'1 3.4
2018-Feb-25 03:00N 45°38' W 122°43'1 2.8
2018-Feb-25 02:30N 45°39' W 122°45'0 0.3
2018-Feb-25 02:00N 45°39' W 122°45'0 0.0
2018-Feb-25 01:30N 45°39' W 122°45'0 0.1
2018-Feb-25 01:00N 45°39' W 122°45'1 2.6
2018-Feb-25 00:30N 45°38' W 122°43'1 2.2
2018-Feb-25 00:00N 45°39' W 122°44'1 2.6
2018-Feb-24 23:30N 45°38' W 122°43'2 2.5
2018-Feb-24 22:53N 45°39' W 122°45'1 3.4
2018-Feb-24 22:30N 45°39' W 122°47'3 5.7
2018-Feb-24 22:00N 45°36' W 122°47'1 2.6
2018-Feb-24 21:30N 45°37' W 122°47'3 5.3
2018-Feb-24 21:00N 45°39' W 122°45'0 0.8
2018-Feb-24 20:30N 45°39' W 122°44'0 0.0
2018-Feb-24 20:00N 45°39' W 122°44'0 0.0
2018-Feb-24 19:30N 45°39' W 122°44'0 0.0
2018-Feb-24 19:00N 45°39' W 122°44'0 0.0
2018-Feb-24 18:30N 45°39' W 122°44'0 0.0
2018-Feb-24 18:00N 45°39' W 122°44'0 0.1
2018-Feb-24 17:30N 45°39' W 122°44'0 0.1
2018-Feb-24 17:00N 45°39' W 122°44'0 0.1
2018-Feb-24 16:30N 45°39' W 122°44'0 0.0
2018-Feb-24 16:00N 45°39' W 122°44'0 0.0
2018-Feb-24 15:25N 45°39' W 122°44'0 0.0
2018-Feb-24 15:00N 45°39' W 122°44'0 0.0
2018-Feb-24 14:31N 45°39' W 122°44'0 0.0
2018-Feb-24 14:00N 45°39' W 122°44'0 0.0
2018-Feb-24 13:30N 45°39' W 122°44'2 2.3
2018-Feb-24 12:45N 45°38' W 122°42'0 1.5
2018-Feb-24 12:30N 45°38' W 122°43'2 3.9
2018-Feb-24 12:00N 45°39' W 122°45'0 0.1
2018-Feb-24 11:30N 45°39' W 122°45'1 1.1
2018-Feb-24 11:00N 45°39' W 122°44'0 0.0
2018-Feb-24 10:30N 45°39' W 122°44'0 0.0
2018-Feb-24 10:00N 45°39' W 122°44'0 0.0
2018-Feb-24 09:30N 45°39' W 122°44'0 0.0
2018-Feb-24 09:00N 45°39' W 122°44'0 0.0
2018-Feb-24 08:30N 45°39' W 122°44'0 0.0
2018-Feb-24 08:00N 45°39' W 122°44'0 0.0
2018-Feb-24 07:31N 45°39' W 122°44'0 0.0
2018-Feb-24 07:00N 45°39' W 122°44'0 0.0
2018-Feb-24 06:30N 45°39' W 122°44'1 2.8
2018-Feb-24 06:00N 45°38' W 122°43'1 1.7
2018-Feb-24 05:30N 45°38' W 122°44'2 3.7
2018-Feb-24 05:00N 45°39' W 122°47'3 5.5
2018-Feb-24 04:30N 45°36' W 122°47'3 6.3
2018-Feb-24 04:00N 45°34' W 122°43'2 4.9
2018-Feb-24 03:30N 45°32' W 122°41'2 3.8
2018-Feb-24 03:00N 45°33' W 122°43'3 6.3
2018-Feb-24 02:30N 45°35' W 122°46'1 1.4
2018-Feb-24 02:00N 45°36' W 122°47'4 4.4
2018-Feb-24 01:12N 45°38' W 122°43'1 3.2
2018-Feb-24 00:48N 45°39' W 122°44'1 2.1
2018-Feb-24 00:30N 45°39' W 122°45'0 0.9
2018-Feb-24 00:00N 45°39' W 122°46'2 4.1
2018-Feb-23 23:30N 45°38' W 122°43'7 8.7
2018-Feb-23 22:45N 45°36' W 122°34'210.1
2018-Feb-23 22:30N 45°35' W 122°31'5 9.7
2018-Feb-23 22:00N 45°34' W 122°24'5 9.3
2018-Feb-23 21:30N 45°33' W 122°18'5 9.5
2018-Feb-23 21:00N 45°34' W 122°11'8 4.8
2018-Feb-23 19:15N 45°37' W 122°00'1 2.4
2018-Feb-23 19:00N 45°37' W 122°01'3 5.3
2018-Feb-23 18:27N 45°36' W 122°05'3 6.2
2018-Feb-23 17:59N 45°35' W 122°09'3 6.3
2018-Feb-23 17:30N 45°34' W 122°13'3 6.1
2018-Feb-23 17:00N 45°33' W 122°17'3 5.9
2018-Feb-23 16:30N 45°34' W 122°21'2 4.4
2018-Feb-23 16:00N 45°34' W 122°24'3 4.9
2018-Feb-23 15:29N 45°34' W 122°27'3 5.3
2018-Feb-23 14:59N 45°35' W 122°31'3 5.5
2018-Feb-23 14:30N 45°36' W 122°34'3 5.6
2018-Feb-23 14:00N 45°37' W 122°38'1 1.7
2018-Feb-23 13:30N 45°37' W 122°39'2 4.2
2018-Feb-23 13:00N 45°38' W 122°42'2 4.6
2018-Feb-23 12:30N 45°39' W 122°45'0 0.2
2018-Feb-23 12:00N 45°39' W 122°45'0 0.1
2018-Feb-23 11:30N 45°39' W 122°45'3 4.2
2018-Feb-23 10:48N 45°42' W 122°46'2 5.8
2018-Feb-23 10:22N 45°44' W 122°46'2 6.0
2018-Feb-23 10:00N 45°46' W 122°46'4 5.7
2018-Feb-23 09:15N 45°51' W 122°47'1 5.7
2018-Feb-23 09:00N 45°52' W 122°47'3 5.4
2018-Feb-23 08:30N 45°55' W 122°48'3 5.7
2018-Feb-23 08:00N 45°57' W 122°49'2 3.1
2018-Feb-23 07:16N 45°59' W 122°50'0 1.2
2018-Feb-23 07:00N 45°59' W 122°50'0 0.2
2018-Feb-23 06:27N 45°59' W 122°50'0 0.6
2018-Feb-23 06:01N 45°59' W 122°50'0 0.0
2018-Feb-23 05:30N 45°59' W 122°50'0 0.0
2018-Feb-23 05:00N 45°59' W 122°50'0 0.0
2018-Feb-23 04:30N 45°59' W 122°50'0 0.0
2018-Feb-23 04:00N 45°59' W 122°50'0 0.0
2018-Feb-23 03:27N 45°59' W 122°50'0 0.0
2018-Feb-23 03:00N 45°59' W 122°50'5 8.6
2018-Feb-23 02:28N 45°55' W 122°49'1 2.5
2018-Feb-23 02:00N 45°54' W 122°48'710.0
2018-Feb-23 01:16N 45°47' W 122°46'2 9.8
2018-Feb-23 01:00N 45°44' W 122°46'5 9.2
2018-Feb-23 00:30N 45°40' W 122°46'1 2.4
2018-Feb-22 23:54N 45°39' W 122°44'0 1.1
2018-Feb-22 23:30N 45°39' W 122°45'1 1.5
2018-Feb-22 23:00N 45°40' W 122°45'1 1.9
2018-Feb-22 22:30N 45°39' W 122°44'0 0.1
2018-Feb-22 22:00N 45°39' W 122°44'0 0.0
2018-Feb-22 21:26N 45°39' W 122°44'0 0.0
2018-Feb-22 21:00N 45°39' W 122°44'0 0.0
2018-Feb-22 20:31N 45°39' W 122°44'0 0.0
2018-Feb-22 19:57N 45°39' W 122°44'0 0.0
2018-Feb-22 19:30N 45°39' W 122°44'0 0.0
2018-Feb-22 18:39N 45°39' W 122°44'0 0.0
2018-Feb-22 18:30N 45°39' W 122°44'0 0.2
2018-Feb-22 18:00N 45°39' W 122°45'0 0.2
2018-Feb-22 17:30N 45°39' W 122°44'0 0.0
2018-Feb-22 17:00N 45°39' W 122°44'0 0.1
2018-Feb-22 16:30N 45°39' W 122°44'1 1.9
2018-Feb-22 16:01N 45°39' W 122°45'0 0.0
2018-Feb-22 15:30N 45°39' W 122°45'3 5.2
2018-Feb-22 15:00N 45°37' W 122°47'1 1.5
2018-Feb-22 14:30N 45°37' W 122°47'3 5.8
2018-Feb-22 14:00N 45°39' W 122°45'0 0.1
2018-Feb-22 13:30N 45°39' W 122°45'2 4.8
2018-Feb-22 13:00N 45°37' W 122°47'3 5.5
2018-Feb-22 12:23N 45°34' W 122°45'0 1.3
2018-Feb-22 12:00N 45°34' W 122°44'0 0.0
2018-Feb-22 11:29N 45°34' W 122°44'0 0.0
2018-Feb-22 11:00N 45°34' W 122°44'0 0.6
2018-Feb-22 10:30N 45°34' W 122°44'3 6.0
2018-Feb-22 10:00N 45°37' W 122°47'3 5.7
2018-Feb-22 09:31N 45°39' W 122°46'1 1.2
2018-Feb-22 09:00N 45°39' W 122°45'0 0.1
2018-Feb-22 08:30N 45°39' W 122°45'2 3.5
2018-Feb-22 08:01N 45°38' W 122°43'0 0.0
2018-Feb-22 07:30N 45°38' W 122°43'0 0.0
2018-Feb-22 07:00N 45°38' W 122°43'2 4.6
2018-Feb-22 06:30N 45°40' W 122°45'0 0.0
2018-Feb-22 06:00N 45°40' W 122°45'0 0.1
2018-Feb-22 05:30N 45°39' W 122°45'0 0.0
2018-Feb-22 05:00N 45°39' W 122°45'0 0.0
2018-Feb-22 04:30N 45°39' W 122°45'1 1.8
2018-Feb-22 04:00N 45°39' W 122°44'0 0.1
2018-Feb-22 03:30N 45°39' W 122°44'0 0.0
2018-Feb-22 03:00N 45°39' W 122°44'0 0.0
2018-Feb-22 02:30N 45°39' W 122°44'0 0.2
2018-Feb-22 02:00N 45°39' W 122°45'2 4.8
2018-Feb-22 01:30N 45°38' W 122°47'4 8.2
2018-Feb-22 01:00N 45°34' W 122°44'4 7.2
2018-Feb-22 00:30N 45°32' W 122°40'2 4.4
2018-Feb-22 00:00N 45°33' W 122°43'4 7.4
2018-Feb-21 23:30N 45°36' W 122°47'3 6.8
2018-Feb-21 23:00N 45°39' W 122°46'1 1.8
2018-Feb-21 22:30N 45°39' W 122°45'2 3.3
2018-Feb-21 22:00N 45°38' W 122°43'2 3.2
2018-Feb-21 21:30N 45°39' W 122°45'2 3.6
2018-Feb-21 21:00N 45°38' W 122°42'0 0.8
2018-Feb-21 20:30N 45°38' W 122°43'0 0.0
2018-Feb-21 20:00N 45°38' W 122°43'1 2.6
2018-Feb-21 19:30N 45°39' W 122°44'0 0.8
2018-Feb-21 19:00N 45°39' W 122°45'0 0.7
2018-Feb-21 18:26N 45°39' W 122°44'0 0.0
2018-Feb-21 17:52N 45°39' W 122°44'0 0.0
2018-Feb-21 17:29N 45°39' W 122°44'0 0.0
2018-Feb-21 17:00N 45°39' W 122°44'0 0.0
2018-Feb-21 16:30N 45°39' W 122°44'0 0.0
2018-Feb-21 16:00N 45°39' W 122°44'0 0.2
2018-Feb-21 15:31N 45°39' W 122°44'2 3.2
2018-Feb-21 15:00N 45°38' W 122°42'2 3.9
2018-Feb-21 14:30N 45°39' W 122°45'0 0.5
2018-Feb-21 14:00N 45°39' W 122°44'0 0.0
2018-Feb-21 13:30N 45°39' W 122°44'0 0.0
2018-Feb-21 13:00N 45°39' W 122°44'0 0.0
2018-Feb-21 12:30N 45°39' W 122°44'0 0.0
2018-Feb-21 12:00N 45°39' W 122°44'0 0.0
2018-Feb-21 11:30N 45°39' W 122°44'0 0.0
2018-Feb-21 11:00N 45°39' W 122°44'0 0.0
2018-Feb-21 10:30N 45°39' W 122°44'0 0.0
2018-Feb-21 10:00N 45°39' W 122°44'0 0.0
2018-Feb-21 09:30N 45°39' W 122°44'0 0.0
2018-Feb-21 08:59N 45°39' W 122°44'0 0.0
2018-Feb-21 08:15N 45°39' W 122°44'0 0.0
2018-Feb-21 08:00N 45°39' W 122°44'0 0.0
2018-Feb-21 07:28N 45°39' W 122°44'0 0.0
2018-Feb-21 06:32N 45°39' W 122°44'0 0.0
2018-Feb-21 06:30N 45°39' W 122°44'0 0.0
2018-Feb-21 05:59N 45°39' W 122°44'0 0.0
2018-Feb-21 05:29N 45°39' W 122°44'0 0.0
2018-Feb-21 05:00N 45°39' W 122°44'0 0.0
2018-Feb-21 04:30N 45°39' W 122°44'0 0.0
2018-Feb-21 04:00N 45°39' W 122°44'0 0.0
2018-Feb-21 03:30N 45°39' W 122°44'1 1.8
2018-Feb-21 03:00N 45°39' W 122°45'1 2.3
2018-Feb-21 02:30N 45°38' W 122°44'0 0.7
2018-Feb-21 02:00N 45°39' W 122°44'0 0.0
2018-Feb-21 01:30N 45°39' W 122°44'0 0.0
2018-Feb-21 01:00N 45°39' W 122°44'0 0.0
2018-Feb-21 00:30N 45°39' W 122°44'1 2.9
2018-Feb-21 00:00N 45°38' W 122°43'2 3.1
2018-Feb-20 23:30N 45°39' W 122°45'1 1.9
2018-Feb-20 23:01N 45°39' W 122°46'3 5.4
2018-Feb-20 22:23N 45°36' W 122°47'0 0.7
2018-Feb-20 22:00N 45°36' W 122°47'1 2.1
2018-Feb-20 21:30N 45°37' W 122°47'0 0.8
2018-Feb-20 21:01N 45°37' W 122°47'0 0.8
2018-Feb-20 20:30N 45°37' W 122°47'2 4.9
2018-Feb-20 20:00N 45°39' W 122°44'0 0.0
2018-Feb-20 19:30N 45°39' W 122°44'0 0.0
2018-Feb-20 19:00N 45°39' W 122°44'1 2.2
2018-Feb-20 18:30N 45°39' W 122°46'3 6.8
2018-Feb-20 18:00N 45°36' W 122°46'2 4.9
2018-Feb-20 17:30N 45°34' W 122°44'2 3.1
2018-Feb-20 17:00N 45°35' W 122°46'2 4.6
2018-Feb-20 16:30N 45°37' W 122°47'2 4.8
2018-Feb-20 16:00N 45°39' W 122°46'1 2.0
2018-Feb-20 15:26N 45°39' W 122°45'0 0.7
2018-Feb-20 15:00N 45°39' W 122°44'0 0.0
2018-Feb-20 14:30N 45°39' W 122°44'0 0.0
2018-Feb-20 14:00N 45°39' W 122°44'0 0.0
2018-Feb-20 13:30N 45°39' W 122°44'0 0.0
2018-Feb-20 13:00N 45°39' W 122°44'0 0.0
2018-Feb-20 12:30N 45°39' W 122°44'0 0.0
2018-Feb-20 12:00N 45°39' W 122°44'0 0.0
2018-Feb-20 11:30N 45°39' W 122°44'0 0.0
2018-Feb-20 11:00N 45°39' W 122°44'0 0.0
2018-Feb-20 10:30N 45°39' W 122°44'0 0.0
2018-Feb-20 10:00N 45°39' W 122°44'0 0.0
2018-Feb-20 09:30N 45°39' W 122°44'0 0.0
2018-Feb-20 09:00N 45°39' W 122°44'0 0.0
2018-Feb-20 08:30N 45°39' W 122°44'0 0.0
2018-Feb-20 08:00N 45°39' W 122°44'0 0.0
2018-Feb-20 07:30N 45°39' W 122°44'1 1.1
2018-Feb-20 07:00N 45°39' W 122°45'2 4.6
2018-Feb-20 06:30N 45°38' W 122°42'1 1.3
2018-Feb-20 06:00N 45°38' W 122°43'0 0.6
2018-Feb-20 05:30N 45°38' W 122°43'1 2.9
2018-Feb-20 05:00N 45°39' W 122°45'0 0.1
2018-Feb-20 04:30N 45°39' W 122°45'1 1.3
2018-Feb-20 04:00N 45°39' W 122°45'4 7.1
2018-Feb-20 03:31N 45°36' W 122°47'2 3.3
2018-Feb-20 03:00N 45°37' W 122°47'3 5.2
2018-Feb-20 02:31N 45°39' W 122°45'1 1.7
2018-Feb-20 01:57N 45°39' W 122°44'0 0.0
2018-Feb-20 01:27N 45°39' W 122°44'0 0.0
2018-Feb-20 00:57N 45°39' W 122°44'0 0.0
2018-Feb-20 00:30N 45°39' W 122°44'0 0.0
2018-Feb-19 23:54N 45°39' W 122°44'0 0.0
2018-Feb-19 23:27N 45°39' W 122°44'0 0.0
2018-Feb-19 23:00N 45°39' W 122°44'0 0.0
2018-Feb-19 22:24N 45°39' W 122°44'0 0.0
2018-Feb-19 21:54N 45°39' W 122°44'0 0.0
2018-Feb-19 21:24N 45°39' W 122°44'0 0.0
2018-Feb-19 21:00N 45°39' W 122°44'0 0.0
2018-Feb-19 20:29N 45°39' W 122°44'0 0.0
2018-Feb-19 20:00N 45°39' W 122°44'0 0.0
2018-Feb-19 18:58N 45°39' W 122°44'0 0.0
2018-Feb-19 18:10N 45°39' W 122°44'0 0.0
2018-Feb-19 18:00N 45°39' W 122°44'0 0.0
2018-Feb-19 17:31N 45°39' W 122°44'0 0.0
2018-Feb-19 17:01N 45°39' W 122°44'0 0.0
2018-Feb-19 16:30N 45°39' W 122°44'0 0.0
2018-Feb-19 16:00N 45°39' W 122°44'0 0.0
2018-Feb-19 15:29N 45°39' W 122°44'0 0.0
2018-Feb-19 15:01N 45°39' W 122°44'0 0.0
2018-Feb-19 14:30N 45°39' W 122°44'0 0.0
2018-Feb-19 14:01N 45°39' W 122°44'0 0.0
2018-Feb-19 13:30N 45°39' W 122°44'0 0.0
2018-Feb-19 13:00N 45°39' W 122°44'0 0.0
2018-Feb-19 12:30N 45°39' W 122°44'0 0.0
2018-Feb-19 12:00N 45°39' W 122°44'0 0.0
2018-Feb-19 10:49N 45°39' W 122°44'0 0.0
2018-Feb-19 10:31N 45°39' W 122°44'0 0.0
2018-Feb-19 10:01N 45°39' W 122°44'0 0.0
2018-Feb-19 09:19N 45°39' W 122°44'0 0.0
2018-Feb-19 09:00N 45°39' W 122°44'0 0.0
2018-Feb-19 08:30N 45°39' W 122°44'0 0.0
2018-Feb-19 08:01N 45°39' W 122°44'0 0.0
2018-Feb-19 07:30N 45°39' W 122°44'0 0.0
2018-Feb-19 06:57N 45°39' W 122°44'0 0.0
2018-Feb-19 06:30N 45°39' W 122°44'0 0.0
2018-Feb-19 06:00N 45°39' W 122°44'0 0.0
2018-Feb-19 05:19N 45°39' W 122°44'0 0.0
2018-Feb-19 05:01N 45°39' W 122°44'0 0.0
2018-Feb-19 04:29N 45°39' W 122°44'0 0.3
2018-Feb-19 04:00N 45°39' W 122°45'1 1.7
2018-Feb-19 03:30N 45°39' W 122°46'1 1.4
2018-Feb-19 03:00N 45°39' W 122°46'1 1.8
2018-Feb-19 02:30N 45°39' W 122°45'0 0.8
2018-Feb-19 02:00N 45°39' W 122°45'1 1.5
2018-Feb-19 01:31N 45°39' W 122°45'1 1.2
2018-Feb-19 01:00N 45°39' W 122°45'0 0.3
2018-Feb-19 00:30N 45°40' W 122°45'2 3.3
2018-Feb-19 00:00N 45°38' W 122°47'3 6.5
2018-Feb-18 23:30N 45°35' W 122°46'2 3.1
2018-Feb-18 23:00N 45°34' W 122°44'0 0.0
2018-Feb-18 22:30N 45°34' W 122°44'0 0.1
2018-Feb-18 22:00N 45°34' W 122°44'2 4.9
2018-Feb-18 21:30N 45°36' W 122°47'3 5.8
2018-Feb-18 21:01N 45°39' W 122°46'3 5.2
2018-Feb-18 20:30N 45°38' W 122°43'1 2.8
2018-Feb-18 20:00N 45°39' W 122°44'0 0.0
2018-Feb-18 19:31N 45°39' W 122°44'0 0.0
2018-Feb-18 19:00N 45°39' W 122°44'0 0.0
2018-Feb-18 18:31N 45°39' W 122°44'0 0.0
2018-Feb-18 18:01N 45°39' W 122°44'0 0.0
2018-Feb-18 17:30N 45°39' W 122°44'0 0.0
2018-Feb-18 17:00N 45°39' W 122°44'0 0.0
2018-Feb-18 16:30N 45°39' W 122°44'0 0.0
2018-Feb-18 16:00N 45°39' W 122°44'2 3.3
2018-Feb-18 15:30N 45°38' W 122°42'5 9.6
2018-Feb-18 15:00N 45°36' W 122°36'510.0
2018-Feb-18 14:30N 45°35' W 122°29'5 9.7
2018-Feb-18 14:00N 45°34' W 122°22'5 9.6
2018-Feb-18 13:30N 45°33' W 122°16'4 8.0
2018-Feb-18 13:00N 45°35' W 122°11'4 6.8
2018-Feb-18 12:27N 45°35' W 122°06'3 1.1
2018-Feb-18 09:23N 45°37' W 122°01'2 4.8
2018-Feb-18 08:58N 45°36' W 122°04'3 6.1
2018-Feb-18 08:29N 45°35' W 122°08'3 6.1
2018-Feb-18 08:00N 45°34' W 122°12'3 6.0
2018-Feb-18 07:30N 45°33' W 122°16'3 5.9
2018-Feb-18 07:00N 45°33' W 122°20'3 4.9
2018-Feb-18 06:28N 45°35' W 122°23'2 5.3
2018-Feb-18 06:00N 45°34' W 122°27'3 5.7
2018-Feb-18 05:29N 45°35' W 122°30'3 5.8
2018-Feb-18 05:00N 45°36' W 122°34'3 5.8
2018-Feb-18 04:30N 45°37' W 122°38'3 5.7
2018-Feb-18 04:00N 45°38' W 122°42'3 5.5
2018-Feb-18 03:31N 45°39' W 122°45'1 1.3
2018-Feb-18 03:00N 45°39' W 122°44'0 0.0
2018-Feb-18 02:31N 45°39' W 122°44'0 0.0
2018-Feb-18 02:01N 45°39' W 122°44'0 0.0
2018-Feb-18 01:30N 45°39' W 122°44'0 0.0
2018-Feb-18 01:01N 45°39' W 122°44'1 0.7
2018-Feb-18 00:11N 45°39' W 122°45'0 0.2
2018-Feb-17 23:48N 45°39' W 122°45'0 0.0
2018-Feb-17 23:30N 45°39' W 122°45'0 0.0
2018-Feb-17 23:00N 45°39' W 122°45'0 0.3
2018-Feb-17 22:30N 45°39' W 122°45'0 0.6
2018-Feb-17 22:00N 45°39' W 122°46'3 6.0
2018-Feb-17 21:30N 45°42' W 122°46'3 6.3
2018-Feb-17 21:00N 45°45' W 122°46'3 6.4
2018-Feb-17 20:30N 45°48' W 122°48'3 6.2
2018-Feb-17 20:01N 45°52' W 122°47'3 5.9
2018-Feb-17 19:30N 45°54' W 122°48'5 5.9
2018-Feb-17 18:39N 45°59' W 122°50'0 0.6
2018-Feb-17 18:31N 45°59' W 122°50'3 5.8
2018-Feb-17 18:00N 45°57' W 122°48'5 8.9
2018-Feb-17 17:30N 45°52' W 122°47'4 8.5
2018-Feb-17 17:00N 45°48' W 122°47'4 8.4
2018-Feb-17 16:31N 45°44' W 122°46'4 8.3
2018-Feb-17 16:00N 45°40' W 122°46'3 5.5
2018-Feb-17 15:30N 45°38' W 122°43'0 0.8
2018-Feb-17 15:00N 45°38' W 122°42'0 0.0
2018-Feb-17 14:30N 45°38' W 122°42'0 0.0
2018-Feb-17 14:00N 45°38' W 122°42'1 1.1
2018-Feb-17 13:30N 45°38' W 122°42'1 1.2
2018-Feb-17 13:00N 45°38' W 122°42'0 0.0
2018-Feb-17 12:30N 45°38' W 122°42'0 0.0
2018-Feb-17 12:00N 45°38' W 122°42'0 0.0
2018-Feb-17 11:30N 45°38' W 122°42'0 0.0
2018-Feb-17 11:00N 45°38' W 122°42'3 5.4
2018-Feb-17 10:30N 45°39' W 122°45'0 0.0
2018-Feb-17 10:00N 45°39' W 122°45'0 0.0
2018-Feb-17 09:30N 45°39' W 122°45'0 0.0
2018-Feb-17 09:00N 45°39' W 122°45'0 0.0
2018-Feb-17 08:31N 45°39' W 122°45'0 0.0
2018-Feb-17 08:00N 45°39' W 122°45'0 0.0
2018-Feb-17 07:30N 45°39' W 122°45'1 1.5
2018-Feb-17 07:00N 45°39' W 122°45'0 0.1
2018-Feb-17 06:30N 45°39' W 122°45'2 3.9
2018-Feb-17 06:01N 45°38' W 122°42'2 3.7
2018-Feb-17 05:30N 45°39' W 122°45'1 1.8
2018-Feb-17 05:01N 45°39' W 122°45'0 0.3
2018-Feb-17 04:30N 45°39' W 122°45'1 0.8
2018-Feb-17 03:45N 45°39' W 122°45'0 0.4
2018-Feb-17 03:16N 45°39' W 122°44'0 0.0
2018-Feb-17 03:00N 45°39' W 122°44'0 0.0
2018-Feb-17 02:30N 45°39' W 122°44'0 0.0
2018-Feb-17 02:01N 45°39' W 122°44'0 0.0
2018-Feb-17 01:31N 45°39' W 122°44'0 0.0
2018-Feb-17 01:00N 45°39' W 122°44'0 0.0
2018-Feb-17 00:30N 45°39' W 122°44'0 0.6
2018-Feb-17 00:01N 45°39' W 122°45'0 0.5
2018-Feb-16 23:28N 45°39' W 122°44'0 0.0
2018-Feb-16 23:00N 45°39' W 122°44'0 0.4
2018-Feb-16 22:29N 45°39' W 122°45'0 0.2
2018-Feb-16 22:00N 45°39' W 122°45'1 1.4
2018-Feb-16 21:29N 45°40' W 122°45'4 5.8
2018-Feb-16 20:44N 45°35' W 122°46'2 7.9
2018-Feb-16 20:30N 45°34' W 122°44'3 6.3
2018-Feb-16 20:00N 45°32' W 122°40'3 5.3
2018-Feb-16 19:30N 45°34' W 122°43'4 7.9
2018-Feb-16 19:00N 45°37' W 122°47'3 5.4
2018-Feb-16 18:31N 45°39' W 122°44'1 2.7
2018-Feb-16 18:00N 45°40' W 122°46'3 5.3
2018-Feb-16 17:30N 45°42' W 122°46'3 5.4
2018-Feb-16 17:00N 45°45' W 122°46'4 5.6
2018-Feb-16 16:12N 45°49' W 122°48'2 5.7
2018-Feb-16 15:53N 45°51' W 122°47'2 5.0
2018-Feb-16 15:30N 45°53' W 122°48'2 3.3
2018-Feb-16 15:00N 45°54' W 122°49'3 6.1
2018-Feb-16 14:30N 45°57' W 122°49'3 6.4
2018-Feb-16 14:00N 46°00' W 122°51'2 3.1
2018-Feb-16 13:30N 46°02' W 122°52'0 0.9
2018-Feb-16 13:00N 46°01' W 122°52'4 7.6
2018-Feb-16 12:30N 45°58' W 122°49'6 7.8
2018-Feb-16 11:47N 45°52' W 122°47'2 8.0
2018-Feb-16 11:30N 45°50' W 122°47'4 8.0
2018-Feb-16 11:00N 45°46' W 122°46'4 8.3
2018-Feb-16 10:30N 45°42' W 122°46'3 6.1
2018-Feb-16 10:00N 45°39' W 122°45'0 0.5
2018-Feb-16 09:26N 45°39' W 122°45'0 0.6
2018-Feb-16 09:01N 45°39' W 122°45'1 1.0
2018-Feb-16 08:31N 45°39' W 122°45'0 0.2
2018-Feb-16 08:01N 45°39' W 122°44'0 0.0
2018-Feb-16 07:30N 45°39' W 122°44'0 0.0
2018-Feb-16 07:00N 45°39' W 122°44'0 0.0
2018-Feb-16 06:30N 45°39' W 122°44'0 0.2
2018-Feb-16 06:00N 45°39' W 122°45'0 0.5
2018-Feb-16 05:30N 45°39' W 122°45'0 0.0
2018-Feb-16 05:00N 45°39' W 122°45'0 0.0
2018-Feb-16 04:30N 45°39' W 122°45'0 0.0
2018-Feb-16 04:00N 45°39' W 122°45'0 0.1
2018-Feb-16 03:31N 45°39' W 122°45'3 5.3
2018-Feb-16 03:00N 45°37' W 122°47'3 6.6
2018-Feb-16 02:29N 45°34' W 122°44'1 3.0
2018-Feb-16 02:00N 45°35' W 122°46'3 6.6
2018-Feb-16 01:30N 45°38' W 122°47'1 2.8
2018-Feb-16 01:00N 45°39' W 122°45'0 0.9
2018-Feb-16 00:30N 45°39' W 122°45'1 1.3
2018-Feb-16 00:01N 45°39' W 122°44'0 0.0
2018-Feb-15 23:31N 45°39' W 122°44'0 0.0
2018-Feb-15 23:01N 45°39' W 122°44'0 0.0
2018-Feb-15 22:30N 45°39' W 122°44'0 0.0
2018-Feb-15 22:00N 45°39' W 122°44'0 0.0
2018-Feb-15 21:30N 45°39' W 122°44'0 0.0
2018-Feb-15 21:00N 45°39' W 122°44'0 0.0
2018-Feb-15 20:30N 45°39' W 122°44'0 0.0
2018-Feb-15 20:00N 45°39' W 122°44'0 0.0
2018-Feb-15 19:30N 45°39' W 122°44'0 0.0
2018-Feb-15 19:00N 45°39' W 122°44'0 0.0
2018-Feb-15 18:20N 45°39' W 122°44'0 1.5
2018-Feb-15 18:01N 45°39' W 122°45'3 5.1
2018-Feb-15 17:30N 45°37' W 122°47'3 6.6
2018-Feb-15 17:00N 45°34' W 122°45'1 1.3
2018-Feb-15 16:30N 45°35' W 122°45'3 6.2
2018-Feb-15 16:01N 45°37' W 122°48'3 5.1
2018-Feb-15 15:30N 45°40' W 122°45'1 1.9
2018-Feb-15 15:00N 45°39' W 122°44'0 0.0
2018-Feb-15 14:30N 45°39' W 122°44'0 0.0
2018-Feb-15 14:00N 45°39' W 122°44'0 0.0
2018-Feb-15 13:30N 45°39' W 122°44'0 0.0
2018-Feb-15 13:00N 45°39' W 122°44'0 0.0
2018-Feb-15 12:30N 45°39' W 122°44'0 0.0
2018-Feb-15 12:01N 45°39' W 122°44'0 0.0
2018-Feb-15 11:13N 45°39' W 122°44'0 0.0
2018-Feb-15 10:54N 45°39' W 122°44'1 1.8
2018-Feb-15 10:30N 45°38' W 122°44'1 1.3
2018-Feb-15 10:00N 45°38' W 122°43'1 2.7
2018-Feb-15 09:30N 45°39' W 122°44'1 1.1
2018-Feb-15 09:01N 45°39' W 122°45'0 0.2
2018-Feb-15 08:30N 45°39' W 122°45'1 2.0
2018-Feb-15 08:00N 45°39' W 122°47'1 2.6
2018-Feb-15 07:30N 45°37' W 122°47'2 4.9
2018-Feb-15 07:01N 45°39' W 122°44'0 0.0
2018-Feb-15 06:30N 45°39' W 122°44'0 0.0
2018-Feb-15 06:01N 45°39' W 122°44'0 0.1
2018-Feb-15 05:30N 45°39' W 122°44'0 0.0
2018-Feb-15 05:01N 45°39' W 122°44'0 0.0
2018-Feb-15 04:30N 45°39' W 122°44'0 0.0
2018-Feb-15 04:00N 45°39' W 122°44'0 0.0
2018-Feb-15 03:30N 45°39' W 122°44'  

Dump ship's entire track history